Time;durP1;ratioP1;P1;durP2;ratioP2;P2;SDS_P1;SDS_P2;PMS_P1;PMS_P2;Temp;Humidity;BMP_temperature;BMP_pressure;BME280_temperature;BME280_humidity;BME280_pressure;Samples;Min_cycle;Max_cycle;Signal;HPM_P1;HPM_P2
2021/11/28 00:01:59;;;;;;;17.40;10.07;;;;;;;5.03;100.00;98509.13;4986942;28;20077;-62
2021/11/28 00:04:45;;;;;;;25.10;11.93;;;;;;;5.12;100.00;98484.47;4981352;28;20501;-64
2021/11/28 00:13:47;;;;;;;22.55;12.13;;;;;;;5.31;100.00;98477.97;4977769;28;20080;-68
2021/11/28 00:16:31;;;;;;;24.33;12.45;;;;;;;5.26;100.00;98478.94;4966426;28;20137;-64
2021/11/28 00:19:16;;;;;;;20.27;12.38;;;;;;;5.36;100.00;98481.38;4982032;28;20105;-64
2021/11/28 00:22:01;;;;;;;25.75;12.32;;;;;;;5.30;100.00;98476.22;4979368;28;20053;-66
2021/11/28 00:24:46;;;;;;;25.15;12.68;;;;;;;5.41;100.00;98482.13;4978996;28;20049;-67
2021/11/28 00:27:30;;;;;;;25.48;13.60;;;;;;;5.35;100.00;98468.25;4979245;28;20549;-66
2021/11/28 00:30:19;;;;;;;22.38;12.40;;;;;;;5.19;100.00;98465.06;4972605;28;20053;-65
2021/11/28 00:33:04;;;;;;;27.30;12.85;;;;;;;5.33;100.00;98457.75;4980321;28;20049;-63
2021/11/28 00:35:48;;;;;;;23.33;13.18;;;;;;;5.43;100.00;98467.22;4964697;28;20053;-70
2021/11/28 00:38:34;;;;;;;25.17;13.95;;;;;;;5.50;100.00;98467.94;4981271;28;20120;-63
2021/11/28 00:41:18;;;;;;;24.45;13.18;;;;;;;5.36;100.00;98472.59;4955148;28;20053;-68
2021/11/28 00:44:03;;;;;;;22.67;12.40;;;;;;;5.36;100.00;98478.72;4977083;28;20120;-65
2021/11/28 00:46:49;;;;;;;23.92;13.05;;;;;;;5.39;100.00;98456.78;4984558;28;20561;-64
2021/11/28 00:49:37;;;;;;;24.20;13.43;;;;;;;5.38;100.00;98466.41;4982181;28;20415;-62
2021/11/28 00:52:24;;;;;;;26.25;13.23;;;;;;;5.45;100.00;98468.03;4986280;28;20089;-63
2021/11/28 00:55:11;;;;;;;21.48;12.40;;;;;;;5.58;100.00;98463.41;4972428;28;20899;-62
2021/11/28 00:57:55;;;;;;;23.80;12.65;;;;;;;5.42;100.00;98464.59;4983516;28;20089;-66
2021/11/28 01:00:42;;;;;;;25.10;13.23;;;;;;;5.60;100.00;98461.59;4982130;28;20596;-65
2021/11/28 01:03:29;;;;;;;22.90;11.25;;;;;;;5.40;100.00;98469.91;4969067;28;20049;-66
2021/11/28 01:06:15;;;;;;;23.00;11.82;;;;;;;5.50;100.00;98465.31;4970444;28;20065;-64
2021/11/28 01:08:59;;;;;;;20.67;11.98;;;;;;;5.64;100.00;98468.50;4984699;28;20133;-63
2021/11/28 01:11:44;;;;;;;23.23;12.73;;;;;;;5.59;100.00;98470.38;4982896;28;20493;-64
2021/11/28 01:14:29;;;;;;;22.50;12.02;;;;;;;5.56;100.00;98473.94;4984028;28;20101;-64
2021/11/28 01:17:15;;;;;;;22.88;12.55;;;;;;;5.48;100.00;98457.47;4984584;28;20046;-65
2021/11/28 01:19:59;;;;;;;;;;;;;;;5.75;100.00;98453.38;4984636;28;20112;-62
2021/11/28 01:22:44;;;;;;;22.08;11.57;;;;;;;5.59;100.00;98455.47;4983808;28;19963;-63
2021/11/28 01:25:29;;;;;;;23.58;12.30;;;;;;;5.44;100.00;98453.16;4983332;28;20124;-63
2021/11/28 01:28:14;;;;;;;24.25;12.48;;;;;;;5.55;100.00;98456.44;4978517;28;20196;-62
2021/11/28 01:30:58;;;;;;;25.73;12.75;;;;;;;5.49;100.00;98466.22;4997922;28;20053;-61
2021/11/28 01:33:43;;;;;;;22.52;12.70;;;;;;;5.52;100.00;98453.88;4984824;28;20045;-65
2021/11/28 01:36:28;;;;;;;22.90;12.43;;;;;;;5.45;100.00;98456.66;4983016;28;20053;-67
2021/11/28 01:39:13;;;;;;;22.70;12.32;;;;;;;5.58;100.00;98455.50;4985635;28;20104;-63
2021/11/28 01:41:59;;;;;;;23.00;12.38;;;;;;;5.72;100.00;98463.94;4982399;28;20053;-62
2021/11/28 01:44:44;;;;;;;22.40;12.20;;;;;;;5.75;100.00;98456.88;4997317;28;20196;-62
2021/11/28 01:47:31;;;;;;;24.83;12.75;;;;;;;5.63;100.00;98470.28;4994450;28;20803;-64
2021/11/28 01:50:17;;;;;;;25.63;13.02;;;;;;;5.71;100.00;98464.84;4982880;28;20077;-64
2021/11/28 01:53:05;;;;;;;24.70;12.50;;;;;;;5.70;100.00;98450.81;4984947;28;20120;-63
2021/11/28 01:55:50;;;;;;;25.30;13.02;;;;;;;5.62;100.00;98467.69;4994521;28;20061;-64
2021/11/28 01:58:45;;;;;;;24.65;12.90;;;;;;;5.60;100.00;98465.09;4994104;28;20517;-65
2021/11/28 02:01:31;;;;;;;25.85;13.25;;;;;;;5.58;100.00;98456.34;4996005;28;20530;-63
2021/11/28 02:04:19;;;;;;;23.98;12.73;;;;;;;5.70;100.00;98465.75;4984570;28;20050;-67
2021/11/28 02:07:06;;;;;;;24.63;13.35;;;;;;;5.81;100.00;98466.44;4983408;28;20052;-62
2021/11/28 02:09:52;;;;;;;23.50;12.88;;;;;;;5.76;100.00;98462.97;4983447;28;20466;-63
2021/11/28 02:12:37;;;;;;;21.63;12.00;;;;;;;5.66;100.00;98459.69;4985497;28;20049;-66
2021/11/28 02:15:22;;;;;;;25.75;12.80;;;;;;;5.71;100.00;98459.59;4999823;28;20092;-65
2021/11/28 02:18:08;;;;;;;23.77;12.95;;;;;;;5.64;100.00;98447.47;4982936;28;20162;-62
2021/11/28 02:20:57;;;;;;;25.75;13.27;;;;;;;5.72;100.00;98451.69;4983099;28;20049;-61
2021/11/28 02:23:41;;;;;;;21.17;12.57;;;;;;;5.78;100.00;98456.81;4974234;28;20064;-63
2021/11/28 02:26:29;;;;;;;23.13;12.30;;;;;;;5.86;100.00;98444.41;4989876;28;20101;-63
2021/11/28 02:29:15;;;;;;;21.92;12.35;;;;;;;5.78;100.00;98456.81;4982018;28;20064;-66
2021/11/28 02:31:59;;;;;;;20.63;11.05;;;;;;;5.82;100.00;98461.16;4981107;28;20065;-65
2021/11/28 02:34:44;;;;;;;24.95;12.30;;;;;;;5.81;100.00;98463.81;4980709;28;20470;-64
2021/11/28 02:37:29;;;;;;;24.50;13.32;;;;;;;5.97;100.00;98460.78;4979919;28;20130;-69
2021/11/28 02:40:20;;;;;;;23.42;12.70;;;;;;;5.94;100.00;98467.88;4969479;28;20414;-64
2021/11/28 02:43:06;;;;;;;22.08;11.93;;;;;;;5.93;100.00;98464.38;4979564;28;20368;-65
2021/11/28 02:45:52;;;;;;;22.67;12.80;;;;;;;5.95;100.00;98467.84;4982162;28;20049;-66
2021/11/28 02:48:38;;;;;;;26.00;14.15;;;;;;;5.91;100.00;98471.44;4984882;28;20530;-64
2021/11/28 02:51:23;;;;;;;23.80;12.68;;;;;;;5.88;100.00;98461.00;4981816;28;20056;-68
2021/11/28 02:54:08;;;;;;;21.50;12.50;;;;;;;5.90;100.00;98471.47;4986225;28;20053;-67
2021/11/28 02:56:53;;;;;;;21.33;13.20;;;;;;;5.91;100.00;98468.81;4983959;28;20057;-64
2021/11/28 02:59:39;;;;;;;23.63;13.18;;;;;;;5.88;100.00;98468.88;4982088;28;20054;-66
2021/11/28 03:02:25;;;;;;;24.25;13.32;;;;;;;5.87;100.00;98472.41;4986071;28;20108;-65
2021/11/28 03:05:15;;;;;;;21.70;11.57;;;;;;;5.86;100.00;98475.97;4983692;28;20053;-66
2021/11/28 03:08:00;;;;;;;23.27;12.50;;;;;;;5.83;100.00;98462.88;4985610;28;20142;-68
2021/11/28 03:10:51;;;;;;;22.58;12.63;;;;;;;5.99;100.00;98482.66;4979801;28;20096;-67
2021/11/28 03:13:45;;;;;;;23.25;12.98;;;;;;;5.97;100.00;98476.56;4984101;28;20073;-66
2021/11/28 03:16:30;;;;;;;24.83;13.18;;;;;;;6.05;100.00;98476.41;4985513;28;20080;-67
2021/11/28 03:19:15;;;;;;;21.25;12.45;;;;;;;6.06;100.00;98479.00;4971186;28;20169;-67
2021/11/28 03:22:01;;;;;;;21.70;12.70;;;;;;;5.97;100.00;98481.81;4979547;28;20057;-67
2021/11/28 03:24:45;;;;;;;19.27;11.30;;;;;;;5.95;100.00;98490.66;4970686;28;20072;-68
2021/11/28 03:27:29;;;;;;;24.00;12.63;;;;;;;5.97;100.00;98478.34;4984951;28;20435;-70
2021/11/28 03:30:17;;;;;;;24.95;13.60;;;;;;;5.94;100.00;98486.28;4986559;28;20470;-63
2021/11/28 03:33:28;;;;;;;21.27;12.82;;;;;;;6.08;100.00;98495.59;4965761;28;20198;-65
2021/11/28 03:36:41;;;;;;;22.50;12.45;;;;;;;6.05;100.00;98481.66;4966648;28;20835;-66
2021/11/28 03:39:31;;;;;;;24.90;12.43;;;;;;;5.97;100.00;98500.22;4938198;28;20050;-70
2021/11/28 03:42:15;;;;;;;22.13;12.00;;;;;;;5.91;100.00;98507.41;4964967;28;20054;-68
2021/11/28 03:45:17;;;;;;;22.00;12.68;;;;;;;5.90;100.00;98497.78;4962818;28;20058;-66
2021/11/28 03:48:08;;;;;;;22.50;12.95;;;;;;;5.89;100.00;98504.78;4963492;28;20122;-63
2021/11/28 03:50:58;;;;;;;24.50;13.10;;;;;;;5.94;100.00;98502.97;4949360;28;20089;-67
2021/11/28 03:53:43;;;;;;;22.20;12.20;;;;;;;5.92;100.00;98504.75;4952366;28;20146;-64
2021/11/28 03:56:36;;;;;;;25.10;13.38;;;;;;;5.92;100.00;98510.00;4950750;28;20102;-73
2021/11/28 03:59:21;;;;;;;24.73;13.07;;;;;;;5.91;100.00;98510.91;4951276;28;20419;-66
2021/11/28 04:02:06;;;;;;;27.15;13.15;;;;;;;5.87;100.00;98508.38;4949945;28;20483;-63
2021/11/28 04:04:53;;;;;;;25.63;12.77;;;;;;;5.76;100.00;98505.06;4963842;28;20117;-66
2021/11/28 04:07:47;;;;;;;25.67;12.90;;;;;;;5.95;100.00;98509.06;4950830;28;20412;-66
2021/11/28 04:10:34;;;;;;;22.95;12.70;;;;;;;6.00;100.00;98505.44;4971857;28;20173;-64
2021/11/28 04:13:21;;;;;;;23.08;12.10;;;;;;;5.95;100.00;98531.00;4969422;28;20050;-66
2021/11/28 04:16:06;;;;;;;26.92;12.23;;;;;;;5.94;100.00;98529.25;4984266;28;20053;-66
2021/11/28 04:18:51;;;;;;;26.70;13.48;;;;;;;5.91;100.00;98528.44;4986067;28;20057;-61
2021/11/28 04:21:42;;;;;;;26.02;13.10;;;;;;;5.84;100.00;98532.97;4986931;28;20116;-65
2021/11/28 04:24:26;;;;;;;25.25;12.32;;;;;;;5.86;100.00;98546.97;4984083;28;20101;-67
2021/11/28 04:27:14;;;;;;;24.67;12.73;;;;;;;5.86;100.00;98543.47;4973095;28;20106;-64
2021/11/28 04:29:58;;;;;;;24.73;12.02;;;;;;;5.78;100.00;98543.59;4969200;28;20061;-64
2021/11/28 04:32:43;;;;;;;26.25;13.07;;;;;;;5.71;100.00;98544.63;4987610;28;20116;-64
2021/11/28 04:35:28;;;;;;;27.58;13.60;;;;;;;5.93;100.00;98547.72;4986980;28;20120;-63
2021/11/28 04:38:13;;;;;;;20.10;11.30;;;;;;;5.91;100.00;98557.38;4987038;28;20060;-71
2021/11/28 04:40:58;;;;;;;25.90;13.43;;;;;;;5.96;100.00;98555.50;4973347;28;20141;-63
2021/11/28 04:43:43;;;;;;;23.40;12.95;;;;;;;6.05;100.00;98561.44;4983197;28;20080;-66
2021/11/28 04:46:28;;;;;;;23.95;11.75;;;;;;;6.00;100.00;98568.56;4984562;28;20483;-65
2021/11/28 04:49:12;;;;;;;31.67;14.57;;;;;;;5.96;100.00;98569.53;4971451;28;20137;-64
2021/11/28 04:51:59;;;;;;;23.65;13.35;;;;;;;5.92;100.00;98577.50;4999351;28;20781;-65
2021/11/28 04:54:45;;;;;;;25.00;13.38;;;;;;;5.96;100.00;98568.66;4986495;28;20762;-63
2021/11/28 04:57:33;;;;;;;28.08;14.25;;;;;;;5.92;100.00;98570.50;4984016;28;20394;-66
2021/11/28 05:00:24;;;;;;;23.77;12.32;;;;;;;5.98;100.00;98572.13;4972860;28;20056;-68
2021/11/28 05:03:13;;;;;;;29.00;14.80;;;;;;;5.91;100.00;98579.28;4986441;28;20057;-64
2021/11/28 05:06:18;;;;;;;26.83;13.25;;;;;;;5.94;100.00;98584.50;4985713;28;20057;-71
2021/11/28 05:09:28;;;;;;;25.73;13.25;;;;;;;5.90;100.00;98584.59;4984886;28;20526;-65
2021/11/28 05:12:13;;;;;;;24.45;13.68;;;;;;;5.89;100.00;98590.75;4986196;28;20077;-66
2021/11/28 05:15:00;;;;;;;28.77;14.30;;;;;;;5.88;100.00;98603.03;4998394;28;20054;-67
2021/11/28 05:17:45;;;;;;;29.88;15.82;;;;;;;5.98;100.00;98587.94;4973282;28;20109;-67
2021/11/28 05:20:30;;;;;;;27.60;14.32;;;;;;;5.91;100.00;98600.34;4986319;28;20049;-70
2021/11/28 05:23:18;;;;;;;25.35;14.07;;;;;;;5.94;100.00;98608.19;4971663;28;20057;-67
2021/11/28 05:26:04;;;;;;;27.25;13.88;;;;;;;5.98;100.00;98607.22;4973089;28;20061;-67
2021/11/28 05:28:50;;;;;;;23.85;12.68;;;;;;;5.95;100.00;98628.31;4981233;28;20267;-65
2021/11/28 05:31:35;;;;;;;31.35;14.85;;;;;;;5.95;100.00;98607.28;4967622;28;20058;-65
2021/11/28 05:34:39;;;;;;;26.27;13.32;;;;;;;5.96;100.00;98602.84;4970698;28;20084;-63
2021/11/28 05:37:42;;;;;;;18.13;11.15;;;;;;;5.94;100.00;98629.22;4985757;28;20423;-63
2021/11/28 05:40:31;;;;;;;26.95;13.55;;;;;;;5.97;100.00;98610.72;4981859;28;20134;-64
2021/11/28 05:43:16;;;;;;;22.25;13.10;;;;;;;5.95;100.00;98624.81;4982967;28;20363;-66
2021/11/28 05:46:01;;;;;;;25.35;13.85;;;;;;;6.02;100.00;98627.31;4981281;28;20430;-64
2021/11/28 05:49:12;;;;;;;23.25;13.55;;;;;;;6.01;100.00;98617.66;4985661;28;20322;-65
2021/11/28 05:52:27;;;;;;;26.10;14.35;;;;;;;6.03;100.00;98615.00;4981947;28;20105;-65
2021/11/28 05:55:12;;;;;;;24.30;14.85;;;;;;;6.06;100.00;98618.44;4984951;28;20057;-67
2021/11/28 05:57:57;;;;;;;28.85;16.48;;;;;;;6.08;100.00;98640.31;4973225;28;20053;-62
2021/11/28 06:00:43;;;;;;;28.05;16.48;;;;;;;6.10;100.00;98633.28;4980253;28;20065;-63
2021/11/28 06:03:28;;;;;;;32.35;17.42;;;;;;;6.06;100.00;98636.00;4977566;28;20093;-67
2021/11/28 06:06:21;;;;;;;29.65;16.55;;;;;;;6.01;100.00;98654.47;4984934;28;20234;-64
2021/11/28 06:09:27;;;;;;;25.83;15.95;;;;;;;6.03;100.00;98649.19;4987938;28;20143;-63
2021/11/28 06:12:12;;;;;;;32.03;17.05;;;;;;;6.02;100.00;98650.09;4982743;28;20065;-65
2021/11/28 06:14:58;;;;;;;25.58;16.00;;;;;;;6.08;100.00;98650.84;4994762;28;20541;-71
2021/11/28 06:17:47;;;;;;;33.97;17.60;;;;;;;6.12;100.00;98665.66;4980292;28;20172;-65
2021/11/28 06:21:01;;;;;;;27.08;16.45;;;;;;;6.18;100.00;98673.47;4931362;29;20050;-65
2021/11/28 06:23:50;;;;;;;30.48;16.85;;;;;;;6.21;100.00;98657.59;4947749;28;20046;-66
2021/11/28 06:26:34;;;;;;;29.80;16.48;;;;;;;6.16;100.00;98659.44;4932712;28;20816;-71
2021/11/28 06:29:19;;;;;;;25.88;15.63;;;;;;;6.22;100.00;98664.59;4933928;29;20150;-66
2021/11/28 06:32:04;;;;;;;27.42;15.38;;;;;;;6.17;100.00;98668.22;4948574;28;20098;-62
2021/11/28 06:35:08;;;;;;;25.58;14.88;;;;;;;6.17;100.00;98670.84;4964672;28;20061;-67
2021/11/28 06:38:19;;;;;;;26.10;13.90;;;;;;;6.26;100.00;98679.44;4954101;28;20046;-64
2021/11/28 06:41:26;;;;;;;24.20;14.27;;;;;;;6.28;100.00;98664.47;4966060;28;20050;-66
2021/11/28 06:44:11;;;;;;;23.80;14.27;;;;;;;6.34;100.00;98680.16;4937427;28;20050;-63
2021/11/28 06:46:56;;;;;;;23.95;14.38;;;;;;;6.42;100.00;98680.84;4942465;28;20984;-65
2021/11/28 06:49:41;;;;;;;;;;;;;;;6.41;100.00;98676.47;4953399;28;20086;-61
2021/11/28 06:53:05;;;;;;;21.63;12.75;;;;;;;6.49;100.00;98673.69;4964427;28;19925;-66
2021/11/28 06:55:49;;;;;;;19.45;11.48;;;;;;;6.52;100.00;98684.16;4948664;28;20093;-65
2021/11/28 06:59:00;;;;;;;18.73;10.55;;;;;;;6.49;100.00;98684.22;4993001;28;20053;-66
2021/11/28 07:01:48;;;;;;;16.05;10.50;;;;;;;6.52;100.00;98692.91;4999715;28;20138;-68
2021/11/28 07:05:00;;;;;;;16.17;10.18;;;;;;;6.52;100.00;98698.16;4981096;28;20879;-64
2021/11/28 07:07:50;;;;;;;15.30;9.93;;;;;;;6.59;100.00;98707.69;4985601;28;20057;-66
2021/11/28 07:10:38;;;;;;;15.82;9.45;;;;;;;6.54;100.00;98706.03;4976151;28;20049;-68
2021/11/28 07:13:30;;;;;;;14.00;9.05;;;;;;;6.51;100.00;98714.00;4985970;28;20049;-68
2021/11/28 07:16:15;;;;;;;16.38;9.88;;;;;;;6.63;100.00;98717.25;4986839;28;20120;-66
2021/11/28 07:19:03;;;;;;;12.77;8.05;;;;;;;6.60;100.00;98724.38;4969987;28;20049;-65
2021/11/28 07:22:08;;;;;;;12.55;7.97;;;;;;;6.71;100.00;98724.97;4929770;28;20895;-67
2021/11/28 07:24:57;;;;;;;12.38;8.45;;;;;;;6.80;100.00;98735.34;4923900;28;20113;-66
2021/11/28 07:27:41;;;;;;;14.20;7.85;;;;;;;6.82;100.00;98739.69;4954638;28;20455;-65
2021/11/28 07:30:26;;;;;;;11.00;6.57;;;;;;;6.91;100.00;98731.56;4929783;29;20058;-74
2021/11/28 07:33:20;;;;;;;10.63;7.45;;;;;;;6.93;100.00;98740.28;4932680;28;20168;-67
2021/11/28 07:36:24;;;;;;;7.57;6.03;;;;;;;6.83;100.00;98745.78;4948314;28;20062;-65
2021/11/28 07:39:09;;;;;;;8.40;5.90;;;;;;;6.79;100.00;98744.13;4931580;28;20250;-65
2021/11/28 07:41:54;;;;;;;7.68;4.70;;;;;;;6.88;100.00;98749.22;4918169;28;20560;-63
2021/11/28 07:44:56;;;;;;;9.50;4.95;;;;;;;6.94;100.00;98760.50;4950499;28;20134;-67
2021/11/28 07:48:12;;;;;;;8.63;5.55;;;;;;;6.95;100.00;98751.69;4948621;28;20103;-63
2021/11/28 07:51:23;;;;;;;7.25;5.07;;;;;;;6.93;100.00;98768.41;4947435;28;20053;-68
2021/11/28 07:54:08;;;;;;;6.57;4.70;;;;;;;6.88;100.00;98770.28;4959388;28;20777;-69
2021/11/28 07:56:53;;;;;;;7.80;5.07;;;;;;;6.89;100.00;98758.84;4928129;28;20210;-69
2021/11/28 08:00:05;;;;;;;6.90;4.53;;;;;;;6.97;100.00;98780.63;4947257;28;20470;-66
2021/11/28 08:02:51;;;;;;;6.82;4.90;;;;;;;7.00;100.00;98776.16;4938686;28;20152;-67
2021/11/28 08:05:58;;;;;;;6.18;4.65;;;;;;;7.03;100.00;98778.72;4952671;28;20206;-66
2021/11/28 08:09:08;;;;;;;6.05;2.92;;;;;;;6.73;100.00;98782.00;4951379;28;20207;-64
2021/11/28 08:12:03;;;;;;;4.88;3.38;;;;;;;6.73;100.00;98768.81;4952690;28;20054;-75
2021/11/28 08:14:48;;;;;;;4.65;3.40;;;;;;;6.64;100.00;98776.91;4951707;28;20053;-65
2021/11/28 08:17:37;;;;;;;;;;;;;;;6.73;100.00;98779.34;4937870;28;20137;-65
2021/11/28 08:20:23;;;;;;;4.63;3.83;;;;;;;6.69;100.00;98775.06;4960538;28;20316;-63
2021/11/28 08:23:08;;;;;;;5.50;4.65;;;;;;;6.78;100.00;98779.28;4944215;28;20053;-65
2021/11/28 08:25:53;;;;;;;6.38;4.10;;;;;;;6.83;100.00;98769.50;4952431;28;20058;-63
2021/11/28 08:28:38;;;;;;;5.45;3.88;;;;;;;6.80;100.00;98774.84;4937943;28;20397;-66
2021/11/28 08:31:23;;;;;;;7.85;4.22;;;;;;;6.74;100.00;98782.88;4950368;28;20133;-71
2021/11/28 08:34:27;;;;;;;5.75;4.20;;;;;;;6.80;100.00;98794.16;4965037;28;20085;-68
2021/11/28 08:37:21;;;;;;;8.38;5.18;;;;;;;6.91;100.00;98794.81;4967654;28;20415;-63
2021/11/28 08:40:07;;;;;;;8.80;4.78;;;;;;;6.89;100.00;98795.72;4984223;28;20798;-66
2021/11/28 08:42:52;;;;;;;7.57;5.10;;;;;;;6.86;100.00;98798.44;4986250;28;20128;-69
2021/11/28 08:45:39;;;;;;;6.90;4.20;;;;;;;6.94;100.00;98801.75;4986967;28;20084;-69
2021/11/28 08:48:24;;;;;;;9.45;4.93;;;;;;;6.78;100.00;98795.97;4994171;28;20057;-73
2021/11/28 08:51:08;;;;;;;7.88;5.32;;;;;;;6.85;100.00;98799.34;4970488;28;20206;-69
2021/11/28 08:53:57;;;;;;;8.65;5.57;;;;;;;6.98;100.00;98800.81;4984153;28;20053;-67
2021/11/28 08:56:53;;;;;;;9.25;5.93;;;;;;;7.04;100.00;98806.81;4986421;28;20061;-67
2021/11/28 08:59:39;;;;;;;9.07;6.35;;;;;;;7.19;100.00;98813.50;4982318;28;20116;-67
2021/11/28 09:02:24;;;;;;;8.30;5.55;;;;;;;7.18;100.00;98815.31;4983420;28;20116;-69
2021/11/28 09:05:11;;;;;;;9.13;6.10;;;;;;;7.20;100.00;98816.13;4987232;28;20053;-66
2021/11/28 09:08:00;;;;;;;7.25;4.80;;;;;;;7.14;100.00;98818.03;4984243;28;20399;-65
2021/11/28 09:10:46;;;;;;;7.68;5.63;;;;;;;7.26;100.00;98823.91;4986745;28;20118;-67
2021/11/28 09:13:35;;;;;;;7.38;4.60;;;;;;;7.14;100.00;98837.34;4985100;28;20061;-68
2021/11/28 09:16:20;;;;;;;5.97;4.80;;;;;;;7.02;100.00;98839.38;4982761;28;20053;-68
2021/11/28 09:19:15;;;;;;;5.72;4.32;;;;;;;7.07;100.00;98837.50;4986344;28;20523;-69
2021/11/28 09:22:05;;;;;;;18.15;5.10;;;;;;;7.17;100.00;98833.78;4994200;28;20143;-69
2021/11/28 09:24:50;;;;;;;7.57;5.30;;;;;;;7.03;100.00;98835.81;4983073;28;20052;-74
2021/11/28 09:27:41;;;;;;;7.18;5.22;;;;;;;7.06;100.00;98841.03;4995014;28;20214;-68
2021/11/28 09:30:28;;;;;;;7.68;5.20;;;;;;;7.20;100.00;98837.22;4997504;28;20041;-67
2021/11/28 09:33:13;;;;;;;7.43;5.00;;;;;;;6.91;100.00;98836.06;4984632;28;20072;-67
2021/11/28 09:35:59;;;;;;;7.35;5.25;;;;;;;7.04;100.00;98837.59;4997564;28;20088;-68
2021/11/28 09:38:43;;;;;;;8.55;5.47;;;;;;;7.03;100.00;98841.97;4981094;28;20069;-74
2021/11/28 09:41:35;;;;;;;8.77;5.95;;;;;;;6.98;100.00;98845.59;4985210;28;20573;-68
2021/11/28 09:44:21;;;;;;;8.73;5.55;;;;;;;6.77;100.00;98846.88;4980521;28;20143;-70
2021/11/28 09:47:11;;;;;;;9.70;6.32;;;;;;;6.88;100.00;98846.69;4984302;28;20113;-74
2021/11/28 09:49:57;;;;;;;10.98;6.65;;;;;;;6.83;100.00;98838.00;4966490;28;20053;-68
2021/11/28 09:52:43;;;;;;;;;;;;;;;6.72;100.00;98845.28;4981792;28;20093;-75
2021/11/28 09:55:31;;;;;;;9.25;6.50;;;;;;;6.91;100.00;98854.53;4968312;28;19928;-67
2021/11/28 09:58:18;;;;;;;10.90;7.20;;;;;;;6.89;100.00;98857.19;4980898;28;20073;-70
2021/11/28 10:01:05;;;;;;;12.27;7.88;;;;;;;7.08;100.00;98860.34;4984138;28;20104;-65
2021/11/28 10:03:50;;;;;;;11.95;7.80;;;;;;;6.80;100.00;98859.16;4986075;28;20398;-67
2021/11/28 10:06:35;;;;;;;11.48;8.48;;;;;;;6.72;100.00;98866.34;4969610;28;20128;-71
2021/11/28 10:09:20;;;;;;;12.00;7.60;;;;;;;6.66;100.00;98867.31;4985437;28;20149;-72
2021/11/28 10:12:16;;;;;;;12.88;8.63;;;;;;;6.79;100.00;98871.44;4984977;28;20065;-70
2021/11/28 10:15:06;;;;;;;15.60;7.90;;;;;;;6.73;100.00;98881.25;4983914;28;20057;-79
2021/11/28 10:17:51;;;;;;;10.98;7.07;;;;;;;6.56;100.00;98884.19;4986300;28;20569;-70
2021/11/28 10:20:39;;;;;;;13.80;7.78;;;;;;;6.57;100.00;98882.44;4967956;28;20056;-68
2021/11/28 10:23:25;;;;;;;14.43;8.60;;;;;;;6.58;100.00;98899.94;4986564;28;20073;-70
2021/11/28 10:26:15;;;;;;;15.23;8.13;;;;;;;6.45;100.00;98908.97;4985097;28;20046;-67
2021/11/28 10:29:06;;;;;;;12.75;8.60;;;;;;;6.33;100.00;98911.81;4959511;28;20100;-76
2021/11/28 10:32:01;;;;;;;16.65;9.43;;;;;;;6.27;100.00;98927.69;4986772;28;20085;-66
2021/11/28 10:34:51;;;;;;;12.73;8.43;;;;;;;6.39;100.00;98922.22;4986139;28;20045;-66
2021/11/28 10:37:40;;;;;;;13.07;9.13;;;;;;;6.40;100.00;98923.97;4982339;28;20414;-67
2021/11/28 10:40:28;;;;;;;15.95;8.68;;;;;;;6.35;100.00;98929.31;4985166;28;20062;-66
2021/11/28 10:43:18;;;;;;;13.90;8.40;;;;;;;6.32;100.00;98947.78;4971505;28;20150;-67
2021/11/28 10:46:30;;;;;;;12.57;8.65;;;;;;;6.34;100.00;98938.13;4978480;28;20057;-72
2021/11/28 10:49:20;;;;;;;15.40;9.57;;;;;;;6.34;100.00;98930.22;4973563;28;20427;-78
2021/11/28 10:52:12;;;;;;;14.55;10.05;;;;;;;6.31;100.00;98943.44;4996130;28;20596;-67
2021/11/28 10:54:58;;;;;;;14.90;9.93;;;;;;;6.24;100.00;98944.41;4970151;28;20074;-70
2021/11/28 10:58:03;;;;;;;15.15;9.98;;;;;;;6.38;100.00;98949.47;4985312;28;20552;-71
2021/11/28 11:00:49;;;;;;;16.13;9.93;;;;;;;6.40;100.00;98947.66;4986840;28;20134;-72
2021/11/28 11:03:36;;;;;;;15.50;8.93;;;;;;;6.39;100.00;98948.56;4980341;28;20318;-75
2021/11/28 11:06:25;;;;;;;15.18;9.80;;;;;;;6.61;100.00;98960.47;4983736;28;20044;-72
2021/11/28 11:09:21;;;;;;;16.00;9.35;;;;;;;6.54;100.00;98954.47;4961192;28;20107;-72
2021/11/28 11:12:35;;;;;;;13.63;8.25;;;;;;;6.40;100.00;98971.34;4980242;28;20553;-70
2021/11/28 11:15:45;;;;;;;13.90;8.38;;;;;;;6.37;100.00;98974.91;5001477;28;20413;-68
2021/11/28 11:18:33;;;;;;;11.48;7.65;;;;;;;6.34;100.00;98972.34;4975204;28;20873;-69
2021/11/28 11:21:17;;;;;;;16.70;7.82;;;;;;;6.49;100.00;98974.69;4989289;28;20116;-74
2021/11/28 11:24:03;;;;;;;12.15;7.75;;;;;;;6.48;100.00;98972.97;4996811;28;20574;-68
2021/11/28 11:26:52;;;;;;;12.63;7.47;;;;;;;6.61;100.00;98963.97;4979637;28;20498;-67
2021/11/28 11:29:37;;;;;;;;;;;;;;;6.61;100.00;98961.31;4999486;28;20061;-69
2021/11/28 11:32:41;;;;;;;10.57;7.53;;;;;;;6.58;100.00;98965.78;4997407;28;19964;-68
2021/11/28 11:35:31;;;;;;;11.43;7.43;;;;;;;6.53;100.00;98978.19;4986500;28;20474;-69
2021/11/28 11:38:16;;;;;;;11.55;6.85;;;;;;;6.65;100.00;98976.19;4982457;28;20430;-67
2021/11/28 11:41:02;;;;;;;13.52;7.75;;;;;;;6.78;100.00;98984.75;4973677;28;20128;-66
2021/11/28 11:43:48;;;;;;;12.40;7.50;;;;;;;6.59;100.00;98981.56;4981946;28;20479;-73
2021/11/28 11:46:34;;;;;;;12.05;7.78;;;;;;;6.64;100.00;98990.25;4956594;28;20121;-66
2021/11/28 11:49:20;;;;;;;12.80;7.75;;;;;;;6.62;100.00;98996.44;4984763;28;20124;-71
2021/11/28 11:52:06;;;;;;;12.65;7.72;;;;;;;6.62;100.00;98996.44;4986768;28;20061;-67
2021/11/28 11:54:56;;;;;;;11.43;7.32;;;;;;;6.67;100.00;99002.50;4987532;28;20037;-69
2021/11/28 11:58:09;;;;;;;13.05;7.38;;;;;;;6.57;100.00;98999.16;4972049;28;20145;-76
2021/11/28 12:01:04;;;;;;;9.43;6.50;;;;;;;6.36;100.00;98991.59;4991154;28;20132;-73
2021/11/28 12:03:54;;;;;;;12.50;6.78;;;;;;;6.31;100.00;99003.97;4983496;28;20061;-74
2021/11/28 12:06:47;;;;;;;10.07;6.40;;;;;;;6.49;100.00;99008.09;4984383;28;20406;-66
2021/11/28 12:09:35;;;;;;;13.60;7.43;;;;;;;6.53;100.00;99008.00;4985525;28;20069;-68
2021/11/28 12:12:41;;;;;;;11.93;6.90;;;;;;;6.71;100.00;99017.34;4984875;28;20092;-66
2021/11/28 12:15:34;;;;;;;10.75;7.13;;;;;;;6.70;100.00;99015.63;4984307;28;20062;-67
2021/11/28 12:18:35;;;;;;;12.15;7.32;;;;;;;6.67;100.00;99015.66;4984208;28;20053;-67
2021/11/28 12:21:42;;;;;;;11.02;7.22;;;;;;;6.79;100.00;99029.53;4969477;28;20052;-67
2021/11/28 12:24:30;;;;;;;13.05;6.97;;;;;;;6.79;100.00;99026.00;4979434;28;20177;-76
2021/11/28 12:27:40;;;;;;;13.30;7.43;;;;;;;6.76;100.00;99026.06;4990904;28;20093;-65
2021/11/28 12:30:34;;;;;;;12.23;6.95;;;;;;;6.67;100.00;99036.75;4984386;28;20492;-66
2021/11/28 12:34:06;;;;;;;12.63;6.90;;;;;;;6.60;100.00;99014.91;4979775;28;20061;-66
2021/11/28 12:36:59;;;;;;;10.35;6.65;;;;;;;6.56;100.00;99021.13;4986807;28;20073;-65
2021/11/28 12:39:45;;;;;;;10.32;7.20;;;;;;;6.53;100.00;99022.94;4997481;28;20045;-65
2021/11/28 12:42:41;;;;;;;12.38;7.72;;;;;;;6.59;100.00;99030.72;4973700;28;20052;-65
2021/11/28 12:45:33;;;;;;;13.48;7.65;;;;;;;6.53;100.00;99033.47;4984892;28;20819;-63
2021/11/28 12:48:24;;;;;;;11.95;7.60;;;;;;;6.63;100.00;99038.56;4983368;28;20052;-66
2021/11/28 12:51:10;;;;;;;11.93;7.10;;;;;;;6.73;100.00;99042.78;4983673;28;20053;-75
2021/11/28 12:54:00;;;;;;;12.45;7.97;;;;;;;6.67;100.00;99040.25;4983068;28;20064;-66
2021/11/28 12:56:46;;;;;;;14.18;7.53;;;;;;;6.60;100.00;99050.94;4983709;28;20089;-67
2021/11/28 12:59:31;;;;;;;11.45;8.02;;;;;;;6.41;100.00;99052.94;4994372;28;20120;-65
2021/11/28 13:02:39;;;;;;;14.70;7.68;;;;;;;6.53;100.00;99060.66;4984796;28;20073;-74
2021/11/28 13:05:31;;;;;;;13.38;7.50;;;;;;;6.21;100.00;99057.63;4986205;28;20088;-65
2021/11/28 13:08:15;;;;;;;13.70;8.60;;;;;;;6.27;100.00;99070.72;4984000;28;20399;-76
2021/11/28 13:11:10;;;;;;;13.43;7.70;;;;;;;6.30;100.00;99069.81;4986974;28;20533;-68
2021/11/28 13:14:00;;;;;;;14.60;8.27;;;;;;;6.31;100.00;99079.44;4972936;28;20065;-64
2021/11/28 13:16:44;;;;;;;15.27;8.48;;;;;;;6.25;100.00;99080.38;4986416;28;20065;-60